createdAt,value
2019-04-10T00:00:35.063Z,34.93
2019-04-10T00:03:02.160Z,34.96
2019-04-10T00:05:29.096Z,35.09
2019-04-10T00:07:56.052Z,35.14
2019-04-10T00:10:23.601Z,35.13
2019-04-10T00:12:50.656Z,35.09
2019-04-10T00:15:18.483Z,35.09
2019-04-10T00:17:45.785Z,35.08
2019-04-10T00:20:12.653Z,35.10
2019-04-10T00:22:39.895Z,35.03
2019-04-10T00:25:06.852Z,34.98
2019-04-10T00:27:34.677Z,34.94
2019-04-10T00:30:02.925Z,34.89
2019-04-10T00:32:30.033Z,34.94
2019-04-10T00:34:58.181Z,34.93
2019-04-10T00:37:28.514Z,34.85
2019-04-10T00:39:54.963Z,34.93
2019-04-10T00:42:22.908Z,34.91
2019-04-10T00:44:50.369Z,34.84
2019-04-10T00:47:17.281Z,34.76
2019-04-10T00:49:44.578Z,34.76
2019-04-10T00:52:12.116Z,34.61
2019-04-10T00:54:39.299Z,34.62
2019-04-10T00:57:07.304Z,34.65
2019-04-10T00:59:34.714Z,34.62
2019-04-10T01:02:02.524Z,34.75
2019-04-10T01:04:30.630Z,34.72
2019-04-10T01:06:57.896Z,34.66
2019-04-10T01:09:25.615Z,34.57
2019-04-10T01:11:52.644Z,34.62
2019-04-10T01:14:19.874Z,34.67
2019-04-10T01:16:47.389Z,34.69
2019-04-10T01:19:15.443Z,34.77
2019-04-10T01:21:42.581Z,34.76
2019-04-10T01:24:09.462Z,34.68
2019-04-10T01:26:37.093Z,34.62
2019-04-10T01:29:05.107Z,34.63
2019-04-10T01:31:33.401Z,34.59
2019-04-10T01:34:01.070Z,34.57
2019-04-10T01:36:29.019Z,34.56
2019-04-10T01:38:56.080Z,34.57
2019-04-10T01:41:23.818Z,34.51
2019-04-10T01:43:51.311Z,34.56
2019-04-10T01:46:18.256Z,34.66
2019-04-10T01:48:45.158Z,34.75
2019-04-10T01:51:12.031Z,34.83
2019-04-10T01:53:39.193Z,34.90
2019-04-10T01:56:20.384Z,34.93
2019-04-10T01:58:35.045Z,34.90
2019-04-10T02:01:02.273Z,35.02
2019-04-10T02:03:29.879Z,35.02
2019-04-10T02:05:57.989Z,35.21
2019-04-10T02:08:25.784Z,35.41
2019-04-10T02:10:53.433Z,35.38
2019-04-10T02:13:21.393Z,35.22
2019-04-10T02:15:48.659Z,35.18
2019-04-10T02:18:15.521Z,35.14
2019-04-10T02:20:43.154Z,35.08
2019-04-10T02:23:10.153Z,35.06
2019-04-10T02:25:37.009Z,35.05
2019-04-10T02:28:04.883Z,35.01
2019-04-10T02:30:32.621Z,34.93
2019-04-10T02:33:02.293Z,34.98
2019-04-10T02:35:29.731Z,34.92
2019-04-10T02:38:00.595Z,35.06
2019-04-10T02:40:25.851Z,35.16
2019-04-10T02:42:52.724Z,35.22
2019-04-10T02:45:19.708Z,35.28
2019-04-10T02:47:47.435Z,35.38
2019-04-10T02:50:16.455Z,35.39
2019-04-10T02:52:45.744Z,35.46
2019-04-10T02:55:14.330Z,35.53
2019-04-10T02:57:41.593Z,35.41
2019-04-10T03:00:10.417Z,35.33
2019-04-10T03:02:38.634Z,35.29
2019-04-10T03:05:07.159Z,35.25
2019-04-10T03:07:35.783Z,35.10
2019-04-10T03:10:15.208Z,35.08
2019-04-10T03:12:32.327Z,35.02
2019-04-10T03:15:01.000Z,34.96
2019-04-10T03:17:28.369Z,34.87
2019-04-10T03:19:56.090Z,34.71
2019-04-10T03:22:23.151Z,34.61
2019-04-10T03:24:50.674Z,34.56
2019-04-10T03:27:19.179Z,34.54
2019-04-10T03:29:46.428Z,34.55
2019-04-10T03:32:14.674Z,34.67
2019-04-10T03:34:43.868Z,34.69
2019-04-10T03:37:11.782Z,34.69
2019-04-10T03:39:38.716Z,34.68
2019-04-10T03:42:06.503Z,34.72
2019-04-10T03:44:34.617Z,34.74
2019-04-10T03:47:02.830Z,34.77
2019-04-10T03:49:29.882Z,34.81
2019-04-10T03:51:56.855Z,34.81
2019-04-10T03:54:23.943Z,34.75
2019-04-10T03:56:51.224Z,34.67
2019-04-10T03:59:18.468Z,34.67
2019-04-10T04:01:45.361Z,34.55
2019-04-10T04:04:13.338Z,34.55
2019-04-10T04:06:40.361Z,34.49
2019-04-10T04:09:11.239Z,34.53
2019-04-10T04:11:36.165Z,34.51
2019-04-10T04:14:04.034Z,34.64
2019-04-10T04:16:31.110Z,34.79
2019-04-10T04:18:58.052Z,34.81
2019-04-10T04:21:25.847Z,34.99
2019-04-10T04:23:53.254Z,35.17
2019-04-10T04:26:21.252Z,35.20
2019-04-10T04:28:49.360Z,35.20
2019-04-10T04:31:16.410Z,35.26
2019-04-10T04:33:44.770Z,35.27
2019-04-10T04:36:12.315Z,35.22
2019-04-10T04:38:39.637Z,35.17
2019-04-10T04:41:06.864Z,35.16
2019-04-10T04:43:33.920Z,35.14
2019-04-10T04:46:01.243Z,35.05
2019-04-10T04:48:28.411Z,34.89
2019-04-10T04:50:56.495Z,34.80
2019-04-10T04:53:23.702Z,34.72
2019-04-10T04:55:51.427Z,34.63
2019-04-10T04:58:18.518Z,34.57
2019-04-10T05:00:45.944Z,34.64
2019-04-10T05:03:13.084Z,34.56
2019-04-10T05:05:39.945Z,34.58
2019-04-10T05:08:07.424Z,34.61
2019-04-10T05:10:35.749Z,34.55
2019-04-10T05:13:02.684Z,34.50
2019-04-10T05:15:29.632Z,34.37
2019-04-10T05:17:57.625Z,34.22
2019-04-10T05:20:29.083Z,34.09
2019-04-10T05:22:54.803Z,33.94
2019-04-10T05:25:22.127Z,33.99
2019-04-10T05:27:49.083Z,33.94
2019-04-10T05:30:16.433Z,33.99
2019-04-10T05:32:44.503Z,33.93
2019-04-10T05:35:11.602Z,33.75
2019-04-10T05:37:39.986Z,33.47
2019-04-10T05:40:07.681Z,33.29
2019-04-10T05:42:35.263Z,33.10
2019-04-10T05:45:03.132Z,32.84
2019-04-10T05:47:30.337Z,32.72
2019-04-10T05:49:57.718Z,32.48
2019-04-10T05:52:24.913Z,32.26
2019-04-10T05:54:51.909Z,31.96
2019-04-10T05:57:18.828Z,31.81
2019-04-10T05:59:46.045Z,31.80
2019-04-10T06:02:13.855Z,31.91
2019-04-10T06:04:41.232Z,32.03
2019-04-10T06:07:08.622Z,32.27
2019-04-10T06:09:36.586Z,33.00
2019-04-10T06:12:04.142Z,33.18
2019-04-10T06:14:32.473Z,32.42
2019-04-10T06:17:02.386Z,32.49
2019-04-10T06:19:28.797Z,32.81
2019-04-10T06:21:56.591Z,32.69
2019-04-10T06:24:24.514Z,32.49
2019-04-10T06:26:52.022Z,32.16
2019-04-10T06:29:19.235Z,31.94
2019-04-10T06:31:47.371Z,31.78
2019-04-10T06:34:16.151Z,31.67
2019-04-10T06:36:43.795Z,31.61
2019-04-10T06:39:12.850Z,31.29
2019-04-10T06:41:41.045Z,30.90
2019-04-10T06:44:08.112Z,30.57
2019-04-10T06:46:37.614Z,29.85
2019-04-10T06:49:05.556Z,29.45
2019-04-10T06:51:35.508Z,29.62
2019-04-10T06:54:07.031Z,29.27
2019-04-10T06:56:31.304Z,29.10
2019-04-10T06:58:58.683Z,28.27
2019-04-10T07:01:38.409Z,27.47
2019-04-10T07:04:02.081Z,27.54
2019-04-10T07:06:36.601Z,27.54
2019-04-10T07:08:53.378Z,26.72
2019-04-10T07:11:22.166Z,26.36
2019-04-10T07:13:49.106Z,25.83
2019-04-10T07:16:16.167Z,25.33
2019-04-10T07:18:45.861Z,24.44
2019-04-10T07:21:12.706Z,23.79
2019-04-10T07:23:40.734Z,23.63
2019-04-10T07:26:08.089Z,23.26
2019-04-10T07:28:36.637Z,23.27
2019-04-10T07:31:08.108Z,22.60
2019-04-10T07:33:32.932Z,21.99
2019-04-10T07:36:04.308Z,21.73
2019-04-10T07:38:28.850Z,21.60
2019-04-10T07:40:56.823Z,21.28
2019-04-10T07:43:27.168Z,21.67
2019-04-10T07:45:56.684Z,22.05
2019-04-10T07:48:21.068Z,22.07
2019-04-10T07:50:48.921Z,21.99
2019-04-10T07:53:16.882Z,21.40
2019-04-10T07:55:56.660Z,21.39
2019-04-10T07:58:13.213Z,21.75
2019-04-10T08:00:40.746Z,22.52
2019-04-10T08:03:09.325Z,22.23
2019-04-10T08:05:37.410Z,21.34
2019-04-10T08:08:05.161Z,20.52
2019-04-10T08:10:32.733Z,19.88
2019-04-10T08:13:00.342Z,19.38
2019-04-10T08:15:27.656Z,19.04
2019-04-10T08:17:56.056Z,19.69
2019-04-10T08:20:24.017Z,19.50
2019-04-10T08:22:51.372Z,19.49
2019-04-10T08:25:19.526Z,19.64
2019-04-10T08:27:47.055Z,20.06
2019-04-10T08:30:15.114Z,20.57
2019-04-10T08:32:53.511Z,20.82
2019-04-10T08:35:11.229Z,21.07
2019-04-10T08:37:39.093Z,21.45
2019-04-10T08:40:07.363Z,22.09
2019-04-10T08:42:35.198Z,22.46
2019-04-10T08:45:03.011Z,22.83
2019-04-10T08:47:31.328Z,22.81
2019-04-10T08:49:58.726Z,22.97
2019-04-10T08:52:25.617Z,23.16
2019-04-10T08:54:53.222Z,23.39
2019-04-10T08:57:21.393Z,23.77
2019-04-10T08:59:48.982Z,24.03
2019-04-10T09:02:16.038Z,24.30
2019-04-10T09:04:43.373Z,24.27
2019-04-10T09:07:11.629Z,24.07
2019-04-10T09:09:39.459Z,24.28
2019-04-10T09:12:07.282Z,24.15
2019-04-10T09:14:35.052Z,23.59
2019-04-10T09:17:02.848Z,23.88
2019-04-10T09:19:30.021Z,24.33
2019-04-10T09:21:57.585Z,24.47
2019-04-10T09:24:25.767Z,24.54
2019-04-10T09:26:52.905Z,24.57
2019-04-10T09:29:21.935Z,24.71
2019-04-10T09:31:48.464Z,25.10
2019-04-10T09:34:15.843Z,25.09
2019-04-10T09:36:43.734Z,24.90
2019-04-10T09:39:11.603Z,24.86
2019-04-10T09:41:38.653Z,24.90
2019-04-10T09:44:06.609Z,24.92
2019-04-10T09:46:33.508Z,24.74
2019-04-10T09:49:00.687Z,24.69
2019-04-10T09:51:27.945Z,24.71
2019-04-10T09:53:55.310Z,24.96
2019-04-10T09:56:22.404Z,24.80
2019-04-10T09:58:49.381Z,24.90
2019-04-10T10:01:17.780Z,24.54
2019-04-10T10:03:44.967Z,24.46
2019-04-10T10:06:23.220Z,24.86
2019-04-10T10:08:41.632Z,24.93
2019-04-10T10:11:09.559Z,24.88
2019-04-10T10:13:37.373Z,24.89
2019-04-10T10:16:04.854Z,24.67
2019-04-10T10:18:31.756Z,24.28
2019-04-10T10:20:59.768Z,24.31
2019-04-10T10:23:27.623Z,24.40
2019-04-10T10:25:55.402Z,24.41
2019-04-10T10:28:22.867Z,24.43
2019-04-10T10:30:50.209Z,24.30
2019-04-10T10:33:17.469Z,24.20
2019-04-10T10:35:44.458Z,24.24
2019-04-10T10:38:11.401Z,24.43
2019-04-10T10:40:39.339Z,24.53
2019-04-10T10:43:07.769Z,24.66
2019-04-10T10:45:34.876Z,24.58
2019-04-10T10:48:01.902Z,24.60
2019-04-10T10:50:29.049Z,24.45
2019-04-10T10:52:56.317Z,24.56
2019-04-10T10:55:23.569Z,24.66
2019-04-10T10:57:51.229Z,24.58
2019-04-10T11:00:19.416Z,24.47
2019-04-10T11:02:46.867Z,24.26
2019-04-10T11:05:13.849Z,24.38
2019-04-10T11:07:41.065Z,24.42
2019-04-10T11:10:08.481Z,24.64
2019-04-10T11:12:35.818Z,24.69
2019-04-10T11:15:03.802Z,24.64
2019-04-10T11:17:31.615Z,24.70
2019-04-10T11:19:59.482Z,24.68
2019-04-10T11:22:26.589Z,24.75
2019-04-10T11:24:53.511Z,24.77
2019-04-10T11:27:20.463Z,24.82
2019-04-10T11:29:47.599Z,24.89
2019-04-10T11:32:14.657Z,24.89
2019-04-10T11:34:42.649Z,25.00
2019-04-10T11:37:23.383Z,24.95
2019-04-10T11:39:43.277Z,24.64
2019-04-10T11:42:09.491Z,24.60
2019-04-10T11:44:36.771Z,24.83
2019-04-10T11:47:06.451Z,24.91
2019-04-10T11:49:33.995Z,24.95
2019-04-10T11:52:03.390Z,24.89
2019-04-10T11:54:32.247Z,24.86
2019-04-10T11:57:02.675Z,24.88
2019-04-10T11:59:28.951Z,24.76
2019-04-10T12:02:00.712Z,24.74
2019-04-10T12:04:29.049Z,24.70
2019-04-10T12:06:57.258Z,24.83
2019-04-10T12:10:16.924Z,24.79
2019-04-10T12:11:53.026Z,24.73
2019-04-10T12:14:20.015Z,24.73
2019-04-10T12:16:47.431Z,24.94
2019-04-10T12:19:15.217Z,24.87
2019-04-10T12:21:42.248Z,24.86
2019-04-10T12:24:09.539Z,24.92
2019-04-10T12:26:36.556Z,25.11
2019-04-10T12:29:04.405Z,24.97
2019-04-10T12:31:33.010Z,25.08
2019-04-10T12:34:01.363Z,24.79
2019-04-10T12:36:28.867Z,24.60
2019-04-10T12:38:56.209Z,24.76
2019-04-10T12:41:23.545Z,24.77
2019-04-10T12:43:51.471Z,24.57
2019-04-10T12:46:19.134Z,24.60
2019-04-10T12:48:47.210Z,24.72
2019-04-10T12:51:14.250Z,24.74
2019-04-10T12:53:41.711Z,24.77
2019-04-10T12:56:08.564Z,24.56
2019-04-10T12:58:37.062Z,24.49
2019-04-10T13:01:04.530Z,24.53
2019-04-10T13:03:31.521Z,24.44
2019-04-10T13:05:58.474Z,24.24
2019-04-10T13:08:35.192Z,24.02
2019-04-10T13:10:54.078Z,24.18
2019-04-10T13:13:22.039Z,24.02
2019-04-10T13:15:54.182Z,24.06
2019-04-10T13:18:21.073Z,24.10
2019-04-10T13:20:48.376Z,24.22
2019-04-10T13:23:17.460Z,24.26
2019-04-10T13:25:55.350Z,24.08
2019-04-10T13:28:12.980Z,23.93
2019-04-10T13:30:48.052Z,23.73
2019-04-10T13:33:10.388Z,23.59
2019-04-10T13:35:37.888Z,23.53
2019-04-10T13:38:05.159Z,23.60
2019-04-10T13:40:32.631Z,23.47
2019-04-10T13:42:59.600Z,23.66
2019-04-10T13:45:27.132Z,23.62
2019-04-10T13:47:54.650Z,23.60
2019-04-10T13:50:22.199Z,23.63
2019-04-10T13:52:51.061Z,23.88
2019-04-10T13:55:19.017Z,23.90
2019-04-10T13:57:46.650Z,23.82
2019-04-10T14:00:13.644Z,23.68
2019-04-10T14:02:41.554Z,23.56
2019-04-10T14:05:08.841Z,23.40
2019-04-10T14:07:36.215Z,23.28
2019-04-10T14:10:03.457Z,23.04
2019-04-10T14:12:31.211Z,23.03
2019-04-10T14:14:59.244Z,22.87
2019-04-10T14:17:26.232Z,23.12
2019-04-10T14:19:54.136Z,22.96
2019-04-10T14:22:21.850Z,23.07
2019-04-10T14:24:50.558Z,23.31
2019-04-10T14:27:18.284Z,23.36
2019-04-10T14:29:45.197Z,23.33
2019-04-10T14:32:13.290Z,23.12
2019-04-10T14:34:40.809Z,23.10
2019-04-10T14:37:07.847Z,23.26
2019-04-10T14:39:35.849Z,23.08
2019-04-10T14:42:02.895Z,22.92
2019-04-10T14:44:30.638Z,23.00
2019-04-10T14:46:58.032Z,23.09
2019-04-10T14:49:27.153Z,23.17
2019-04-10T14:51:54.723Z,23.22
2019-04-10T14:54:23.766Z,23.01
2019-04-10T14:56:50.756Z,23.02
2019-04-10T14:59:17.830Z,23.15
2019-04-10T15:01:44.822Z,23.12
2019-04-10T15:04:12.969Z,23.06
2019-04-10T15:06:40.333Z,23.01
2019-04-10T15:09:17.955Z,23.08
2019-04-10T15:11:36.229Z,23.12
2019-04-10T15:14:03.721Z,23.98
2019-04-10T15:16:31.532Z,23.44
2019-04-10T15:18:58.557Z,23.28
2019-04-10T15:21:25.495Z,23.37
2019-04-10T15:23:53.189Z,23.53
2019-04-10T15:26:20.273Z,23.54
2019-04-10T15:28:47.726Z,23.50
2019-04-10T15:31:15.146Z,23.54
2019-04-10T15:33:42.167Z,23.80
2019-04-10T15:36:09.462Z,23.50
2019-04-10T15:38:38.002Z,23.44
2019-04-10T15:41:06.417Z,23.26
2019-04-10T15:43:33.781Z,23.17
2019-04-10T15:46:02.327Z,23.11
2019-04-10T15:48:29.512Z,23.02
2019-04-10T15:50:58.525Z,23.13
2019-04-10T15:53:26.398Z,23.01
2019-04-10T15:55:53.757Z,23.21
2019-04-10T15:58:21.531Z,23.10
2019-04-10T16:00:50.235Z,23.18
2019-04-10T16:03:19.537Z,23.25
2019-04-10T16:05:50.075Z,23.15
2019-04-10T16:08:20.462Z,23.02
2019-04-10T16:10:49.665Z,23.19
2019-04-10T16:13:19.830Z,23.30
2019-04-10T16:15:47.858Z,23.35
2019-04-10T16:18:15.854Z,23.27
2019-04-10T16:20:43.284Z,23.17
2019-04-10T16:23:12.231Z,23.21
2019-04-10T16:25:40.389Z,23.15
2019-04-10T16:28:08.303Z,22.95
2019-04-10T16:30:35.427Z,22.95
2019-04-10T16:33:02.908Z,22.88
2019-04-10T16:35:32.493Z,22.92
2019-04-10T16:37:58.589Z,23.05
2019-04-10T16:40:26.857Z,22.98
2019-04-10T16:42:55.090Z,22.98
2019-04-10T16:45:22.489Z,23.04
2019-04-10T16:47:50.339Z,22.94
2019-04-10T16:50:17.559Z,23.03
2019-04-10T16:52:45.652Z,22.87
2019-04-10T16:55:12.629Z,22.69
2019-04-10T16:57:39.842Z,22.70
2019-04-10T17:00:07.417Z,22.69
2019-04-10T17:02:36.026Z,22.74
2019-04-10T17:05:03.908Z,22.97
2019-04-10T17:07:31.241Z,23.04
2019-04-10T17:10:12.785Z,23.10
2019-04-10T17:12:27.517Z,23.25
2019-04-10T17:14:55.426Z,23.42
2019-04-10T17:17:22.465Z,23.51
2019-04-10T17:19:55.388Z,23.59
2019-04-10T17:22:30.854Z,23.71
2019-04-10T17:24:49.448Z,23.84
2019-04-10T17:27:16.412Z,23.87
2019-04-10T17:29:45.258Z,23.56
2019-04-10T17:32:17.593Z,23.49
2019-04-10T17:34:42.996Z,23.50
2019-04-10T17:37:10.066Z,23.62
2019-04-10T17:39:39.608Z,23.69
2019-04-10T17:42:08.471Z,23.72
2019-04-10T17:44:38.027Z,23.77
2019-04-10T17:47:07.126Z,23.83
2019-04-10T17:49:33.880Z,23.87
2019-04-10T17:52:03.297Z,23.83
2019-04-10T17:54:31.261Z,23.82
2019-04-10T17:57:02.489Z,23.85
2019-04-10T17:59:30.209Z,23.91
2019-04-10T18:01:58.960Z,23.83
2019-04-10T18:04:26.491Z,23.94
2019-04-10T18:06:53.442Z,23.98
2019-04-10T18:09:21.380Z,23.93
2019-04-10T18:11:48.511Z,24.00
2019-04-10T18:14:15.515Z,24.09
2019-04-10T18:16:42.400Z,24.06
2019-04-10T18:19:10.859Z,24.22
2019-04-10T18:21:39.128Z,24.36
2019-04-10T18:24:06.480Z,24.41
2019-04-10T18:26:34.027Z,24.45
2019-04-10T18:29:02.330Z,24.39
2019-04-10T18:31:29.685Z,24.41
2019-04-10T18:33:56.648Z,24.44
2019-04-10T18:36:24.351Z,24.48
2019-04-10T18:38:52.598Z,24.49
2019-04-10T18:41:20.006Z,24.48
2019-04-10T18:43:46.904Z,24.59
2019-04-10T18:46:17.985Z,24.91
2019-04-10T18:48:45.635Z,25.00
2019-04-10T18:51:12.604Z,25.12
2019-04-10T18:53:39.552Z,25.16
2019-04-10T18:56:07.039Z,25.25
2019-04-10T18:58:34.163Z,25.35
2019-04-10T19:01:01.150Z,25.42
2019-04-10T19:03:29.714Z,25.61
2019-04-10T19:05:58.330Z,25.57
2019-04-10T19:08:26.031Z,25.69
2019-04-10T19:11:08.406Z,25.73
2019-04-10T19:13:22.478Z,25.86
2019-04-10T19:15:50.563Z,25.96
2019-04-10T19:18:17.809Z,26.02
2019-04-10T19:20:45.042Z,26.26
2019-04-10T19:23:14.980Z,26.35
2019-04-10T19:25:45.572Z,26.47
2019-04-10T19:28:12.961Z,26.60
2019-04-10T19:30:39.939Z,26.71
2019-04-10T19:33:08.389Z,26.87
2019-04-10T19:35:35.776Z,26.86
2019-04-10T19:38:03.128Z,26.79
2019-04-10T19:40:31.896Z,26.70
2019-04-10T19:42:59.959Z,26.62
2019-04-10T19:45:27.963Z,26.51
2019-04-10T19:47:54.997Z,26.50
2019-04-10T19:50:21.880Z,26.54
2019-04-10T19:52:49.096Z,26.51
2019-04-10T19:55:16.073Z,26.52
2019-04-10T19:57:43.639Z,26.53
2019-04-10T20:00:11.091Z,26.54
2019-04-10T20:02:40.058Z,26.51
2019-04-10T20:05:07.423Z,26.45
2019-04-10T20:07:35.268Z,26.54
2019-04-10T20:10:03.723Z,26.61
2019-04-10T20:12:32.990Z,26.74
2019-04-10T20:15:02.452Z,26.94
2019-04-10T20:17:30.268Z,26.99
2019-04-10T20:19:58.809Z,26.97
2019-04-10T20:22:27.961Z,26.95
2019-04-10T20:24:54.774Z,27.03
2019-04-10T20:27:23.681Z,27.03
2019-04-10T20:29:51.110Z,26.92
2019-04-10T20:32:18.294Z,26.56
2019-04-10T20:34:45.449Z,26.48
2019-04-10T20:37:13.040Z,26.33
2019-04-10T20:39:41.266Z,26.13
2019-04-10T20:42:09.809Z,26.29
2019-04-10T20:44:36.948Z,26.46
2019-04-10T20:47:04.222Z,26.51
2019-04-10T20:49:31.464Z,26.38
2019-04-10T20:51:58.358Z,26.53
2019-04-10T20:54:25.883Z,26.49
2019-04-10T20:56:53.124Z,26.52
2019-04-10T20:59:20.440Z,26.60
2019-04-10T21:01:47.740Z,26.49
2019-04-10T21:04:15.101Z,26.58
2019-04-10T21:06:43.595Z,26.50
2019-04-10T21:09:11.718Z,26.58
2019-04-10T21:11:39.913Z,26.70
2019-04-10T21:14:07.265Z,26.71
2019-04-10T21:16:34.253Z,26.73
2019-04-10T21:19:02.374Z,26.68
2019-04-10T21:21:30.720Z,26.62
2019-04-10T21:23:57.858Z,26.51
2019-04-10T21:26:25.181Z,26.61
2019-04-10T21:28:52.119Z,26.59
2019-04-10T21:31:19.002Z,26.85
2019-04-10T21:33:46.948Z,26.99
2019-04-10T21:36:14.408Z,26.89
2019-04-10T21:38:41.359Z,26.85
2019-04-10T21:41:10.802Z,26.79
2019-04-10T21:43:37.202Z,26.96
2019-04-10T21:46:04.065Z,26.78
2019-04-10T21:48:31.051Z,26.95
2019-04-10T21:50:58.236Z,26.88
2019-04-10T21:53:25.469Z,27.04
2019-04-10T21:55:53.576Z,26.92
2019-04-10T21:58:20.608Z,26.86
2019-04-10T22:00:49.037Z,26.76
2019-04-10T22:03:16.899Z,26.74
2019-04-10T22:05:44.543Z,26.71
2019-04-10T22:08:12.573Z,26.80
2019-04-10T22:10:39.909Z,26.81
2019-04-10T22:13:07.802Z,26.82
2019-04-10T22:15:35.167Z,26.75
2019-04-10T22:18:03.741Z,26.88
2019-04-10T22:20:31.759Z,27.03
2019-04-10T22:22:59.804Z,27.05
2019-04-10T22:25:27.714Z,26.99
2019-04-10T22:27:54.720Z,27.04
2019-04-10T22:30:21.720Z,27.05
2019-04-10T22:32:49.287Z,27.09
2019-04-10T22:35:17.512Z,26.96
2019-04-10T22:37:44.461Z,27.03
2019-04-10T22:40:11.681Z,27.04
2019-04-10T22:42:43.030Z,27.01
2019-04-10T22:45:07.220Z,27.00
2019-04-10T22:47:34.170Z,27.01
2019-04-10T22:50:01.131Z,27.04
2019-04-10T22:52:28.390Z,27.04
2019-04-10T22:54:55.371Z,26.97
2019-04-10T22:57:23.090Z,26.92
2019-04-10T22:59:51.177Z,26.88
2019-04-10T23:02:19.315Z,26.90
2019-04-10T23:04:47.116Z,26.89
2019-04-10T23:07:14.536Z,26.93
2019-04-10T23:09:41.526Z,26.87
2019-04-10T23:12:08.461Z,26.92
2019-04-10T23:14:36.600Z,26.90
2019-04-10T23:17:04.253Z,26.99
2019-04-10T23:19:31.284Z,26.88
2019-04-10T23:21:58.213Z,26.88
2019-04-10T23:24:25.194Z,26.86
2019-04-10T23:26:53.311Z,26.85
2019-04-10T23:29:20.333Z,26.88
2019-04-10T23:31:48.002Z,26.88
2019-04-10T23:34:15.061Z,26.87
2019-04-10T23:36:42.410Z,26.86
2019-04-10T23:39:10.088Z,26.83
2019-04-10T23:41:37.901Z,26.78
2019-04-10T23:44:05.067Z,26.89
2019-04-10T23:46:32.574Z,27.01
2019-04-10T23:48:59.605Z,27.01
2019-04-10T23:51:27.330Z,27.05
2019-04-10T23:53:55.099Z,27.07
2019-04-10T23:56:22.152Z,27.02
2019-04-10T23:58:50.760Z,27.00
